createdAt,value
2022-10-15T00:01:43.769Z,58.60
2022-10-15T00:04:11.643Z,60.38
2022-10-15T00:06:39.739Z,61.28
2022-10-15T00:09:07.523Z,65.52
2022-10-15T00:11:36.133Z,65.26
2022-10-15T00:14:04.264Z,62.21
2022-10-15T00:16:33.715Z,59.66
2022-10-15T00:19:01.511Z,56.66
2022-10-15T00:21:30.029Z,56.57
2022-10-15T00:23:58.237Z,58.23
2022-10-15T00:26:28.967Z,59.72
2022-10-15T00:29:01.097Z,61.65
2022-10-15T00:31:30.706Z,65.50
2022-10-15T00:34:00.994Z,65.72
2022-10-15T00:36:33.083Z,62.00
2022-10-15T00:39:01.038Z,59.67
2022-10-15T00:41:37.718Z,57.10
2022-10-15T00:44:24.328Z,57.17
2022-10-15T00:46:56.888Z,58.52
2022-10-15T00:50:09.721Z,60.20
2022-10-15T00:53:37.298Z,61.50
2022-10-15T00:56:07.760Z,67.31
2022-10-15T00:58:36.344Z,63.86
2022-10-15T01:01:05.752Z,60.57
2022-10-15T01:03:35.987Z,57.32
2022-10-15T01:06:04.571Z,57.05
2022-10-15T01:08:35.502Z,58.95
2022-10-15T01:11:20.348Z,60.48
2022-10-15T01:14:05.706Z,64.78
2022-10-15T01:17:15.839Z,63.98
2022-10-15T01:20:10.480Z,60.31
2022-10-15T01:22:55.666Z,56.34
2022-10-15T01:25:42.704Z,57.34
2022-10-15T01:28:32.284Z,59.36
2022-10-15T01:31:12.489Z,60.32
2022-10-15T01:33:46.607Z,65.46
2022-10-15T01:36:51.588Z,64.70
2022-10-15T01:39:33.162Z,60.71
2022-10-15T01:42:11.586Z,56.64
2022-10-15T01:44:44.683Z,57.23
2022-10-15T01:47:49.153Z,59.09
2022-10-15T01:50:23.327Z,60.53
2022-10-15T01:52:53.091Z,65.10
2022-10-15T01:55:22.272Z,64.80
2022-10-15T01:57:51.555Z,60.72
2022-10-15T02:00:19.563Z,57.35
2022-10-15T02:02:47.871Z,56.53
2022-10-15T02:05:20.503Z,57.82
2022-10-15T02:08:31.184Z,60.35
2022-10-15T02:11:04.211Z,61.41
2022-10-15T02:14:11.212Z,67.01
2022-10-15T02:17:00.711Z,64.86
2022-10-15T02:19:51.912Z,61.02
2022-10-15T02:22:34.672Z,57.05
2022-10-15T02:25:08.414Z,57.67
2022-10-15T02:27:38.122Z,59.61
2022-10-15T02:30:08.174Z,60.73
2022-10-15T02:32:39.438Z,65.24
2022-10-15T02:35:10.363Z,64.71
2022-10-15T02:37:44.890Z,60.79
2022-10-15T02:40:13.023Z,57.04
2022-10-15T02:42:43.123Z,56.99
2022-10-15T02:45:12.894Z,58.92
2022-10-15T02:47:42.157Z,60.98
2022-10-15T02:50:10.344Z,64.99
2022-10-15T02:52:38.445Z,64.24
2022-10-15T02:55:07.025Z,60.53
2022-10-15T02:57:35.888Z,57.02
2022-10-15T03:00:05.644Z,57.29
2022-10-15T03:02:34.231Z,58.85
2022-10-15T03:05:02.362Z,60.66
2022-10-15T03:07:31.211Z,64.64
2022-10-15T03:09:59.369Z,63.93
2022-10-15T03:12:29.191Z,60.10
2022-10-15T03:14:59.243Z,56.51
2022-10-15T03:17:28.644Z,56.46
2022-10-15T03:19:56.737Z,58.55
2022-10-15T03:22:24.810Z,60.50
2022-10-15T03:24:54.414Z,64.31
2022-10-15T03:27:27.985Z,64.20
2022-10-15T03:29:56.558Z,60.11
2022-10-15T03:32:27.272Z,56.77
2022-10-15T03:34:55.365Z,57.28
2022-10-15T03:37:25.193Z,59.01
2022-10-15T03:39:53.445Z,60.28
2022-10-15T03:42:21.838Z,64.93
2022-10-15T03:44:53.694Z,64.91
2022-10-15T03:47:21.694Z,61.17
2022-10-15T03:49:50.857Z,57.55
2022-10-15T03:52:20.149Z,57.10
2022-10-15T03:54:49.598Z,59.06
2022-10-15T03:57:20.477Z,61.11
2022-10-15T03:59:55.070Z,61.99
2022-10-15T04:02:26.307Z,66.95
2022-10-15T04:04:56.446Z,65.25
2022-10-15T04:07:24.513Z,61.57
2022-10-15T04:09:52.627Z,57.70
2022-10-15T04:12:28.716Z,57.49
2022-10-15T04:14:57.301Z,58.61
2022-10-15T04:17:25.091Z,60.47
2022-10-15T04:19:53.171Z,65.25
2022-10-15T04:22:22.020Z,64.43
2022-10-15T04:24:54.775Z,61.25
2022-10-15T04:27:29.515Z,57.55
2022-10-15T04:30:12.230Z,57.50
2022-10-15T04:32:46.185Z,59.11
2022-10-15T04:35:14.311Z,60.07
2022-10-15T04:38:02.402Z,60.77
2022-10-15T04:40:46.806Z,66.82
2022-10-15T04:43:15.932Z,65.33
2022-10-15T04:45:44.280Z,61.77
2022-10-15T04:48:12.437Z,57.91
2022-10-15T04:50:40.933Z,57.49
2022-10-15T04:53:17.706Z,59.17
2022-10-15T04:55:47.458Z,60.92
2022-10-15T04:58:16.291Z,64.99
2022-10-15T05:00:44.572Z,64.13
2022-10-15T05:03:38.614Z,60.40
2022-10-15T05:06:13.045Z,57.72
2022-10-15T05:08:44.663Z,57.30
2022-10-15T05:11:27.777Z,58.92
2022-10-15T05:13:57.850Z,61.03
2022-10-15T05:16:28.402Z,65.53
2022-10-15T05:19:08.897Z,63.98
2022-10-15T05:21:39.857Z,59.39
2022-10-15T05:24:13.900Z,56.51
2022-10-15T05:27:03.359Z,57.11
2022-10-15T05:29:35.208Z,59.39
2022-10-15T05:32:03.121Z,61.10
2022-10-15T05:34:34.691Z,65.37
2022-10-15T05:37:07.079Z,64.67
2022-10-15T05:39:47.407Z,60.41
2022-10-15T05:42:26.161Z,56.77
2022-10-15T05:44:58.262Z,57.52
2022-10-15T05:47:26.537Z,59.45
2022-10-15T05:50:16.166Z,61.18
2022-10-15T05:52:49.733Z,65.96
2022-10-15T05:55:32.656Z,64.40
2022-10-15T05:58:45.008Z,60.94
2022-10-15T06:01:21.229Z,56.82
2022-10-15T06:04:44.510Z,57.74
2022-10-15T06:10:01.474Z,64.09
2022-10-15T06:28:29.026Z,57.10
2022-10-15T06:31:04.174Z,57.31
2022-10-15T06:33:32.718Z,58.73
2022-10-15T06:36:08.126Z,60.25
2022-10-15T06:38:49.405Z,61.17
2022-10-15T06:41:17.850Z,65.52
2022-10-15T06:43:49.322Z,65.17
2022-10-15T06:46:17.373Z,61.32
2022-10-15T06:48:45.861Z,57.39
2022-10-15T06:51:14.946Z,56.92
2022-10-15T06:53:48.911Z,58.31
2022-10-15T06:56:16.857Z,59.96
2022-10-15T06:58:48.719Z,61.32
2022-10-15T07:01:17.229Z,65.27
2022-10-15T07:03:53.919Z,64.52
2022-10-15T07:06:21.774Z,60.71
2022-10-15T07:11:51.159Z,56.94
2022-10-15T07:14:19.064Z,57.91
2022-10-15T07:16:55.113Z,59.69
2022-10-15T07:19:24.498Z,60.50
2022-10-15T07:21:52.451Z,61.02
2022-10-15T07:24:23.050Z,65.52
2022-10-15T07:26:51.311Z,64.43
2022-10-15T07:29:21.700Z,60.69
2022-10-15T07:31:49.639Z,56.70
2022-10-15T07:34:19.716Z,56.50
2022-10-15T07:36:47.510Z,58.06
2022-10-15T07:39:18.124Z,59.79
2022-10-15T07:41:46.748Z,60.98
2022-10-15T07:44:17.711Z,64.94
2022-10-15T07:46:48.259Z,64.05
2022-10-15T07:49:16.480Z,59.97
2022-10-15T07:51:45.889Z,56.37
2022-10-15T07:54:13.773Z,55.90
2022-10-15T07:56:41.682Z,56.66
2022-10-15T07:59:09.588Z,58.71
2022-10-15T08:01:39.059Z,59.89
2022-10-15T08:04:07.162Z,60.75
2022-10-15T08:06:38.548Z,64.99
2022-10-15T08:09:10.167Z,64.91
2022-10-15T08:11:39.298Z,60.84
2022-10-15T08:14:08.830Z,57.20
2022-10-15T08:16:40.760Z,56.58
2022-10-15T08:19:09.859Z,58.07
2022-10-15T08:21:40.933Z,59.15
2022-10-15T08:24:13.184Z,60.42
2022-10-15T08:26:41.384Z,61.51
2022-10-15T08:29:11.951Z,65.64
2022-10-15T08:31:40.182Z,64.85
2022-10-15T08:34:08.538Z,60.91
2022-10-15T08:36:36.899Z,56.77
2022-10-15T08:39:07.314Z,55.75
2022-10-15T08:41:40.338Z,57.28
2022-10-15T08:44:22.303Z,58.96
2022-10-15T08:46:54.457Z,59.84
2022-10-15T08:49:45.979Z,61.28
2022-10-15T08:52:42.645Z,66.19
2022-10-15T08:55:18.263Z,63.68
2022-10-15T08:57:51.870Z,60.15
2022-10-15T09:00:48.225Z,56.43
2022-10-15T09:03:29.037Z,56.67
2022-10-15T09:06:14.591Z,57.91
2022-10-15T09:09:09.483Z,59.52
2022-10-15T09:12:12.592Z,61.48
2022-10-15T09:14:45.626Z,66.81
2022-10-15T09:17:27.217Z,63.68
2022-10-15T09:19:57.409Z,60.30
2022-10-15T09:22:29.588Z,57.21
2022-10-15T09:24:58.686Z,57.60
2022-10-15T09:27:34.335Z,59.17
2022-10-15T09:30:06.717Z,60.87
2022-10-15T09:32:54.281Z,61.31
2022-10-15T09:35:29.835Z,66.37
2022-10-15T09:38:06.512Z,64.11
2022-10-15T09:41:16.902Z,61.03
2022-10-15T09:43:48.974Z,56.88
2022-10-15T09:46:17.266Z,57.38
2022-10-15T09:48:53.730Z,58.69
2022-10-15T09:52:07.809Z,60.10
2022-10-15T09:54:44.840Z,61.08
2022-10-15T09:57:14.528Z,65.31
2022-10-15T10:00:03.743Z,65.11
2022-10-15T10:02:41.776Z,60.70
2022-10-15T10:05:33.312Z,56.84
2022-10-15T10:08:09.569Z,57.00
2022-10-15T10:10:41.740Z,58.60
2022-10-15T10:13:25.740Z,60.25
2022-10-15T10:16:02.878Z,61.20
2022-10-15T10:18:35.708Z,64.79
2022-10-15T10:21:06.505Z,63.60
2022-10-15T10:23:39.925Z,60.49
2022-10-15T10:26:10.387Z,57.08
2022-10-15T10:28:49.407Z,56.96
2022-10-15T10:31:17.986Z,57.95
2022-10-15T10:33:48.279Z,59.16
2022-10-15T10:36:29.074Z,59.61
2022-10-15T10:39:14.299Z,60.84
2022-10-15T10:41:56.548Z,61.03
2022-10-15T10:44:50.112Z,63.85
2022-10-15T10:47:40.076Z,62.90
2022-10-15T10:50:57.398Z,56.85
2022-10-15T10:53:45.153Z,56.21
2022-10-15T10:56:16.097Z,57.85
2022-10-15T10:59:08.792Z,58.26
2022-10-15T11:02:23.652Z,58.94
2022-10-15T11:07:55.820Z,58.95
2022-10-15T11:10:39.867Z,58.03
2022-10-15T11:16:47.763Z,57.70
2022-10-15T11:20:06.199Z,58.29
2022-10-15T11:23:07.698Z,57.11
2022-10-15T11:26:07.677Z,56.71
2022-10-15T11:28:55.763Z,56.95
2022-10-15T11:32:14.700Z,55.92
2022-10-15T11:35:51.657Z,55.87
2022-10-15T11:38:37.296Z,56.45
2022-10-15T11:41:12.719Z,56.53
2022-10-15T11:43:54.370Z,56.89
2022-10-15T11:46:25.330Z,57.37
2022-10-15T11:49:10.352Z,57.97
2022-10-15T11:52:19.971Z,58.40
2022-10-15T11:55:11.564Z,58.09
2022-10-15T11:57:45.117Z,58.32
2022-10-15T12:00:25.480Z,58.33
2022-10-15T12:03:15.811Z,58.36
2022-10-15T12:06:11.831Z,58.17
2022-10-15T12:08:47.236Z,57.91
2022-10-15T12:11:55.196Z,57.34
2022-10-15T12:14:47.078Z,57.41
2022-10-15T12:17:34.139Z,57.28
2022-10-15T12:20:22.503Z,57.58
2022-10-15T12:22:55.357Z,57.93
2022-10-15T12:25:35.738Z,57.80
2022-10-15T12:28:23.367Z,58.23
2022-10-15T12:31:11.749Z,58.05
2022-10-15T12:33:55.837Z,57.52
2022-10-15T12:36:30.942Z,57.76
2022-10-15T12:39:00.790Z,57.38
2022-10-15T12:41:43.042Z,57.06
2022-10-15T12:44:29.121Z,56.39
2022-10-15T12:46:58.432Z,56.82
2022-10-15T12:49:32.501Z,56.83
2022-10-15T12:52:47.038Z,56.90
2022-10-15T12:55:27.120Z,57.12
2022-10-15T12:58:04.863Z,57.14
2022-10-15T13:00:36.217Z,57.33
2022-10-15T13:03:10.081Z,57.40
2022-10-15T13:05:43.608Z,57.51
2022-10-15T13:08:23.347Z,57.43
2022-10-15T13:10:58.193Z,57.69
2022-10-15T13:13:32.652Z,57.61
2022-10-15T13:16:08.072Z,58.00
2022-10-15T13:18:36.425Z,58.12
2022-10-15T13:21:13.779Z,58.63
2022-10-15T13:23:49.326Z,58.90
2022-10-15T13:26:35.095Z,59.37
2022-10-15T13:29:05.887Z,59.78
2022-10-15T13:31:37.380Z,59.91
2022-10-15T13:34:25.466Z,60.31
2022-10-15T13:37:02.931Z,60.32
2022-10-15T13:39:41.833Z,60.59
2022-10-15T13:42:18.589Z,60.47
2022-10-15T13:45:17.614Z,60.65
2022-10-15T13:47:59.841Z,60.77
2022-10-15T13:50:36.991Z,61.00
2022-10-15T13:53:21.848Z,61.23
2022-10-15T13:55:54.615Z,61.47
2022-10-15T13:58:35.783Z,61.57
2022-10-15T14:01:27.317Z,62.00
2022-10-15T14:04:03.213Z,63.17
2022-10-15T14:06:38.650Z,64.16
2022-10-15T14:09:28.420Z,58.53
2022-10-15T14:12:03.265Z,57.02
2022-10-15T14:14:48.844Z,57.59
2022-10-15T14:17:18.993Z,58.13
2022-10-15T14:20:02.160Z,58.78
2022-10-15T14:22:36.533Z,59.64
2022-10-15T14:25:17.508Z,59.74
2022-10-15T14:27:46.244Z,60.51
2022-10-15T14:30:23.115Z,60.68
2022-10-15T14:32:55.143Z,61.14
2022-10-15T14:35:24.699Z,61.31
2022-10-15T14:38:27.161Z,60.89
2022-10-15T14:41:10.068Z,65.54
2022-10-15T14:43:41.028Z,64.69
2022-10-15T14:46:16.986Z,60.40
2022-10-15T14:48:45.163Z,56.66
2022-10-15T14:51:19.669Z,55.89
2022-10-15T14:53:47.871Z,56.53
2022-10-15T14:56:26.712Z,57.35
2022-10-15T14:58:56.935Z,57.81
2022-10-15T15:01:27.583Z,58.59
2022-10-15T15:03:57.143Z,59.48
2022-10-15T15:06:25.457Z,60.13
2022-10-15T15:08:53.592Z,60.25
2022-10-15T15:11:26.090Z,60.73
2022-10-15T15:13:56.382Z,61.16
2022-10-15T15:16:26.226Z,61.66
2022-10-15T15:19:10.007Z,65.28
2022-10-15T15:21:46.606Z,63.31
2022-10-15T15:24:22.367Z,58.60
2022-10-15T15:26:57.161Z,56.69
2022-10-15T15:29:35.034Z,57.05
2022-10-15T15:32:08.009Z,58.07
2022-10-15T15:34:36.136Z,58.98
2022-10-15T15:37:13.933Z,59.63
2022-10-15T15:39:43.366Z,60.29
2022-10-15T15:42:24.270Z,60.91
2022-10-15T15:44:53.315Z,61.35
2022-10-15T15:47:21.884Z,64.54
2022-10-15T15:49:50.124Z,64.71
2022-10-15T15:52:19.971Z,59.89
2022-10-15T15:54:47.983Z,57.10
2022-10-15T15:57:16.243Z,56.98
2022-10-15T15:59:44.718Z,57.97
2022-10-15T16:02:16.789Z,58.62
2022-10-15T16:04:47.102Z,59.30
2022-10-15T16:07:19.450Z,59.19
2022-10-15T16:09:50.199Z,61.11
2022-10-15T16:12:17.990Z,61.67
2022-10-15T16:14:46.120Z,65.32
2022-10-15T16:17:14.610Z,65.14
2022-10-15T16:19:44.904Z,61.72
2022-10-15T16:22:16.178Z,57.90
2022-10-15T16:24:44.611Z,56.62
2022-10-15T16:27:15.072Z,57.66
2022-10-15T16:29:44.712Z,59.03
2022-10-15T16:32:13.527Z,59.89
2022-10-15T16:34:42.224Z,60.58
2022-10-15T16:37:11.252Z,64.14
2022-10-15T16:39:39.400Z,64.28
2022-10-15T16:42:11.254Z,60.89
2022-10-15T16:44:39.686Z,57.03
2022-10-15T16:47:11.571Z,56.35
2022-10-15T16:49:49.343Z,57.69
2022-10-15T16:52:34.429Z,58.59
2022-10-15T16:55:29.423Z,59.90
2022-10-15T16:58:03.875Z,60.33
2022-10-15T17:01:45.317Z,64.83
2022-10-15T17:05:04.705Z,63.70
2022-10-15T17:07:28.399Z,59.60
2022-10-15T17:14:24.373Z,56.40
2022-10-15T17:20:36.693Z,58.72
2022-10-15T17:23:24.486Z,59.86
2022-10-15T17:26:30.664Z,60.66
2022-10-15T17:29:55.764Z,65.27
2022-10-15T17:32:44.101Z,62.29
2022-10-15T17:35:11.838Z,60.04
2022-10-15T17:37:42.557Z,56.91
2022-10-15T17:40:11.343Z,56.24
2022-10-15T17:42:42.843Z,57.46
2022-10-15T17:45:11.332Z,58.85
2022-10-15T17:47:39.313Z,59.64
2022-10-15T17:50:07.922Z,60.46
2022-10-15T17:52:36.163Z,61.20
2022-10-15T17:55:04.590Z,65.23
2022-10-15T17:57:32.399Z,64.48
2022-10-15T18:00:00.557Z,61.10
2022-10-15T18:02:29.144Z,57.96
2022-10-15T18:04:58.316Z,57.24
2022-10-15T18:07:26.265Z,58.34
2022-10-15T18:09:54.294Z,59.51
2022-10-15T18:12:22.086Z,60.65
2022-10-15T18:14:50.476Z,61.51
2022-10-15T18:17:19.363Z,65.59
2022-10-15T18:19:47.095Z,64.16
2022-10-15T18:22:14.945Z,61.13
2022-10-15T18:24:42.719Z,58.01
2022-10-15T18:27:10.605Z,57.45
2022-10-15T18:29:38.452Z,58.67
2022-10-15T18:32:06.290Z,60.74
2022-10-15T18:34:34.604Z,64.63
2022-10-15T18:37:02.322Z,64.13
2022-10-15T18:39:30.102Z,61.79
2022-10-15T18:41:57.898Z,59.40
2022-10-15T18:44:25.724Z,56.67
2022-10-15T18:46:53.572Z,56.82
2022-10-15T18:49:23.040Z,58.13
2022-10-15T18:51:52.967Z,59.70
2022-10-15T18:54:23.708Z,60.76
2022-10-15T18:56:53.081Z,64.36
2022-10-15T18:59:21.672Z,64.63
2022-10-15T19:01:52.736Z,61.43
2022-10-15T19:04:25.396Z,58.09
2022-10-15T19:06:54.561Z,57.81
2022-10-15T19:09:26.352Z,59.07
2022-10-15T19:11:55.626Z,60.25
2022-10-15T19:14:25.362Z,61.55
2022-10-15T19:16:53.495Z,65.67
2022-10-15T19:19:23.418Z,64.81
2022-10-15T19:21:51.913Z,61.04
2022-10-15T19:24:21.202Z,57.45
2022-10-15T19:26:50.468Z,57.05
2022-10-15T19:29:19.064Z,58.50
2022-10-15T19:31:49.110Z,59.83
2022-10-15T19:34:18.705Z,60.89
2022-10-15T19:36:48.541Z,61.66
2022-10-15T19:39:19.234Z,65.93
2022-10-15T19:41:47.749Z,64.79
2022-10-15T19:44:17.328Z,60.97
2022-10-15T19:46:46.697Z,57.35
2022-10-15T19:49:14.780Z,57.09
2022-10-15T19:51:42.852Z,58.10
2022-10-15T19:54:10.617Z,59.61
2022-10-15T19:56:38.419Z,60.31
2022-10-15T19:59:06.797Z,61.01
2022-10-15T20:01:34.681Z,65.17
2022-10-15T20:04:06.096Z,63.67
2022-10-15T20:06:36.618Z,60.66
2022-10-15T20:09:06.531Z,57.15
2022-10-15T20:11:34.984Z,56.47
2022-10-15T20:14:03.533Z,57.79
2022-10-15T20:16:33.169Z,58.80
2022-10-15T20:19:05.849Z,60.32
2022-10-15T20:21:33.941Z,61.12
2022-10-15T20:24:04.480Z,65.17
2022-10-15T20:26:33.359Z,64.61
2022-10-15T20:29:01.517Z,60.85
2022-10-15T20:31:32.995Z,57.28
2022-10-15T20:34:05.123Z,56.34
2022-10-15T20:36:32.923Z,57.63
2022-10-15T20:39:01.808Z,59.33
2022-10-15T20:41:34.057Z,60.05
2022-10-15T20:44:02.025Z,61.15
2022-10-15T20:46:37.271Z,64.41
2022-10-15T20:51:41.669Z,61.88
2022-10-15T20:54:10.780Z,57.95
2022-10-15T20:56:39.078Z,57.35
2022-10-15T21:07:16.811Z,66.97
2022-10-15T21:09:46.323Z,64.53
2022-10-15T21:12:24.087Z,60.98
2022-10-15T21:15:23.721Z,57.93
2022-10-15T21:18:20.831Z,57.82
2022-10-15T21:21:46.499Z,59.71
2022-10-15T21:32:08.839Z,62.12
2022-10-15T21:34:38.471Z,58.17
2022-10-15T21:37:08.959Z,57.84
2022-10-15T21:39:38.884Z,59.19
2022-10-15T21:42:08.754Z,60.61
2022-10-15T21:44:38.180Z,61.37
2022-10-15T21:47:10.450Z,65.54
2022-10-15T21:49:42.193Z,64.92
2022-10-15T21:52:12.209Z,61.30
2022-10-15T21:54:41.472Z,57.69
2022-10-15T21:57:11.031Z,57.39
2022-10-15T21:59:39.869Z,58.70
2022-10-15T22:02:12.497Z,60.11
2022-10-15T22:04:44.260Z,61.13
2022-10-15T22:07:12.188Z,65.15
2022-10-15T22:09:40.034Z,64.62
2022-10-15T22:12:08.243Z,60.71
2022-10-15T22:14:36.103Z,56.98
2022-10-15T22:17:03.901Z,56.80
2022-10-15T22:19:31.813Z,58.26
2022-10-15T22:21:59.558Z,59.87
2022-10-15T22:24:27.565Z,60.80
2022-10-15T22:26:55.617Z,64.77
2022-10-15T22:29:25.162Z,64.45
2022-10-15T22:31:53.818Z,60.98
2022-10-15T22:34:22.593Z,57.36
2022-10-15T22:36:50.589Z,57.50
2022-10-15T22:39:19.027Z,59.21
2022-10-15T22:41:47.887Z,60.74
2022-10-15T22:44:18.200Z,61.39
2022-10-15T22:46:47.246Z,65.15
2022-10-15T22:49:17.235Z,64.13
2022-10-15T22:51:46.435Z,60.48
2022-10-15T22:54:15.981Z,56.83
2022-10-15T22:56:43.778Z,56.18
2022-10-15T22:59:11.653Z,57.37
2022-10-15T23:01:39.466Z,59.65
2022-10-15T23:04:08.015Z,60.91
2022-10-15T23:06:37.631Z,65.39
2022-10-15T23:09:06.660Z,63.44
2022-10-15T23:11:37.506Z,61.03
2022-10-15T23:14:07.844Z,57.62
2022-10-15T23:16:39.456Z,57.66
2022-10-15T23:19:13.503Z,58.33
2022-10-15T23:21:47.785Z,59.25
2022-10-15T23:24:17.601Z,61.10
2022-10-15T23:26:46.969Z,65.81
2022-10-15T23:29:20.085Z,63.71
2022-10-15T23:31:49.078Z,60.23
2022-10-15T23:34:25.578Z,56.62
2022-10-15T23:36:54.232Z,56.41
2022-10-15T23:39:25.839Z,58.26
2022-10-15T23:41:54.685Z,59.98
2022-10-15T23:44:25.626Z,61.18
2022-10-15T23:46:54.435Z,65.53
2022-10-15T23:49:22.192Z,64.48
2022-10-15T23:51:51.204Z,61.41
2022-10-15T23:54:19.564Z,57.98
2022-10-15T23:56:48.036Z,57.86
2022-10-15T23:59:17.439Z,59.39
